Chesapeake, VA

4:01 PM EDT on August 02, 2015 (GMT -0400)
South Greenbrier | | Change Station
CLOSE
Current Station
Personal Weather Station
Location: Chesapeake, VA
Elevation: 33 ft
Nearby Weather Stations

Elev 33 ft 36.74 °N, 76.22 °W | Updated 36 seconds ago

Partly Cloudy
Partly Cloudy
82.4 °F
Feels Like 90 °F
N
1.0
Wind Variable Wind from NW
Gusts 6.0 mph

Today
High -- | Low -- °F
--% Chance of Precip.
Yesterday
High -- | Low -- °F
Precip. -- in
6:11 AM 8:10 PM
Waning Gibbous, 92% visible
Pressure 29.93 in
Visibility 10.0 miles
Clouds Clear
Heat Index 90 °F
Dew Point 76 °F
Humidity 82%
Rainfall 0.33 in
Snow Depth Not available.
UV 7 out of 12
Pollen 6.50 out of 12
Air Quality Not available.
Flu Activity Not available.
METAR KNFE 021956Z AUTO 06004KT 10SM CLR 32/22 A2992 RMK AO2 SLP133 T03170222 PWINO

More Conditions Fewer Conditions

Pressure 29.93 in
Visibility 10.0 miles
Clouds Clear
Heat Index 90 °F
Dew Point 76 °F
Humidity 82%
Rainfall 0.33 in
Snow Depth Not available.
UV 7 out of 12
Pollen 6.50 out of 12
Air Quality Not available.
Flu Activity Not available.
METAR KNFE 021956Z AUTO 06004KT 10SM CLR 32/22 A2992 RMK AO2 SLP133 T03170222 PWINO

More Conditions Fewer Conditions

10-Day Weather Forecast

×

Almanac

Astronomy

Aug. 02, 2015 Rise Set
Actual Time
Civil Twilight
Nautical Twilight
Astronomical Twilight
Moon
Length of Visible Light
Length of Day
Tomorrow will be .
, % of the Moon is Illuminated

Today's Extremes

State Highs State Lows

Community

WunderPhotos

Upload Photos

1,843,356 photos uploaded!

WunderBlogs® & News

Nearby

Air Quality

  Air Quality AQ Index Pollutant
Not available.

Snow Depth

Station Depth Elevation

Earthquake Activity

City Distance Mag. Time & Date
Minimum magnitude displayed is 2.5.

Coastal Water Temperatures

Place Temperature

Stations

Nearby Weather Stations

Station Location Temp. Windchill Dew Point Humidity Wind Precip. Elev Updated Type